createdAt,value
2019-02-28T00:02:47.219Z,21.40
2019-02-28T00:05:33.724Z,21.40
2019-02-28T00:08:20.283Z,21.40
2019-02-28T00:11:06.612Z,21.40
2019-02-28T00:13:55.815Z,21.40
2019-02-28T00:16:41.077Z,21.40
2019-02-28T00:19:27.291Z,21.40
2019-02-28T00:22:14.683Z,21.40
2019-02-28T00:25:04.324Z,21.40
2019-02-28T00:27:52.742Z,21.40
2019-02-28T00:30:37.362Z,21.40
2019-02-28T00:33:25.407Z,21.40
2019-02-28T00:36:11.267Z,21.40
2019-02-28T00:38:59.972Z,21.40
2019-02-28T00:41:45.049Z,21.40
2019-02-28T00:44:31.594Z,21.40
2019-02-28T00:47:17.889Z,21.40
2019-02-28T00:50:03.982Z,21.40
2019-02-28T00:52:50.261Z,21.40
2019-02-28T00:55:36.531Z,21.40
2019-02-28T00:58:28.449Z,21.40
2019-02-28T01:01:12.545Z,21.30
2019-02-28T01:03:59.119Z,21.30
2019-02-28T01:06:46.514Z,21.30
2019-02-28T01:09:32.841Z,21.30
2019-02-28T01:12:20.187Z,21.40
2019-02-28T01:15:10.064Z,21.30
2019-02-28T01:17:57.228Z,21.30
2019-02-28T01:20:44.065Z,21.30
2019-02-28T01:23:30.536Z,21.30
2019-02-28T01:26:16.891Z,21.30
2019-02-28T01:29:03.237Z,21.30
2019-02-28T01:31:49.487Z,21.30
2019-02-28T01:34:35.864Z,21.30
2019-02-28T01:37:22.059Z,21.30
2019-02-28T01:40:08.212Z,21.30
2019-02-28T01:42:55.106Z,21.30
2019-02-28T01:45:44.295Z,21.30
2019-02-28T01:48:29.772Z,21.30
2019-02-28T01:51:16.535Z,21.20
2019-02-28T01:54:03.020Z,21.20
2019-02-28T01:56:49.399Z,21.20
2019-02-28T01:59:35.672Z,21.20
2019-02-28T02:02:22.461Z,21.20
2019-02-28T02:05:09.035Z,21.20
2019-02-28T02:07:55.187Z,21.20
2019-02-28T02:10:40.896Z,21.20
2019-02-28T02:13:27.215Z,21.20
2019-02-28T02:16:13.218Z,21.20
2019-02-28T02:18:58.947Z,21.20
2019-02-28T02:21:45.324Z,21.20
2019-02-28T02:24:32.343Z,21.20
2019-02-28T02:27:19.537Z,21.20
2019-02-28T02:30:15.116Z,21.20
2019-02-28T02:32:58.091Z,21.20
2019-02-28T02:35:44.625Z,21.20
2019-02-28T02:38:30.795Z,21.20
2019-02-28T02:41:16.905Z,21.20
2019-02-28T02:44:03.357Z,21.20
2019-02-28T02:46:55.578Z,21.20
2019-02-28T02:49:37.624Z,21.20
2019-02-28T02:52:30.007Z,21.20
2019-02-28T02:55:11.958Z,21.20
2019-02-28T02:57:58.260Z,21.20
2019-02-28T03:00:49.613Z,21.20
2019-02-28T03:03:32.669Z,21.20
2019-02-28T03:06:18.967Z,21.20
2019-02-28T03:09:10.137Z,21.20
2019-02-28T03:11:57.746Z,21.20
2019-02-28T03:14:43.692Z,21.20
2019-02-28T03:17:29.947Z,21.20
2019-02-28T03:20:16.550Z,21.20
2019-02-28T03:23:03.353Z,21.20
2019-02-28T03:25:49.894Z,21.20
2019-02-28T03:28:36.456Z,21.20
2019-02-28T03:31:22.753Z,21.20
2019-02-28T03:34:13.022Z,21.20
2019-02-28T03:36:57.677Z,21.20
2019-02-28T03:39:44.138Z,21.20
2019-02-28T03:42:31.087Z,21.20
2019-02-28T03:45:17.183Z,21.20
2019-02-28T03:48:03.237Z,21.20
2019-02-28T03:50:49.018Z,21.20
2019-02-28T03:53:35.536Z,21.20
2019-02-28T03:56:22.035Z,21.20
2019-02-28T03:59:08.224Z,21.20
2019-02-28T04:01:54.639Z,21.20
2019-02-28T04:04:48.439Z,21.20
2019-02-28T04:07:29.030Z,21.20
2019-02-28T04:10:16.810Z,21.20
2019-02-28T04:13:03.744Z,21.10
2019-02-28T04:16:07.654Z,21.10
2019-02-28T04:18:44.350Z,21.10
2019-02-28T04:21:28.083Z,21.10
2019-02-28T04:24:16.052Z,21.10
2019-02-28T04:27:06.026Z,21.10
2019-02-28T04:29:50.021Z,21.10
2019-02-28T04:32:36.292Z,21.10
2019-02-28T04:35:25.342Z,21.10
2019-02-28T04:38:10.550Z,21.10
2019-02-28T04:40:58.788Z,21.10
2019-02-28T04:43:45.098Z,21.10
2019-02-28T04:46:31.796Z,21.20
2019-02-28T04:49:22.646Z,21.20
2019-02-28T04:52:07.923Z,21.10
2019-02-28T04:54:54.952Z,21.10
2019-02-28T04:57:40.790Z,21.10
2019-02-28T05:00:27.192Z,21.10
2019-02-28T05:03:13.468Z,21.10
2019-02-28T05:05:59.926Z,21.10
2019-02-28T05:08:46.199Z,21.10
2019-02-28T05:11:33.674Z,21.20
2019-02-28T05:14:23.401Z,21.20
2019-02-28T05:17:07.598Z,21.20
2019-02-28T05:19:55.186Z,21.20
2019-02-28T05:22:41.355Z,21.20
2019-02-28T05:25:27.451Z,21.20
2019-02-28T05:28:13.932Z,21.20
2019-02-28T05:31:01.293Z,21.20
2019-02-28T05:33:47.632Z,21.20
2019-02-28T05:36:34.551Z,21.20
2019-02-28T05:39:21.989Z,21.20
2019-02-28T05:42:08.377Z,21.20
2019-02-28T05:44:54.771Z,21.20
2019-02-28T05:47:46.248Z,21.20
2019-02-28T05:50:28.419Z,21.20
2019-02-28T05:53:14.354Z,21.20
2019-02-28T05:56:00.419Z,21.20
2019-02-28T05:58:49.293Z,21.20
2019-02-28T06:01:34.792Z,21.10
2019-02-28T06:04:21.302Z,21.10
2019-02-28T06:07:09.370Z,21.10
2019-02-28T06:09:55.530Z,21.10
2019-02-28T06:12:43.819Z,21.10
2019-02-28T06:15:29.432Z,21.10
2019-02-28T06:18:15.754Z,21.10
2019-02-28T06:21:02.072Z,21.10
2019-02-28T06:23:48.736Z,21.10
2019-02-28T06:26:34.899Z,21.10
2019-02-28T06:29:21.239Z,21.10
2019-02-28T06:32:07.626Z,21.20
2019-02-28T06:34:55.135Z,21.20
2019-02-28T06:37:41.495Z,21.30
2019-02-28T06:40:32.596Z,21.20
2019-02-28T06:43:18.751Z,21.10
2019-02-28T06:46:03.784Z,21.00
2019-02-28T06:48:50.575Z,20.90
2019-02-28T06:51:36.971Z,20.90
2019-02-28T06:54:23.255Z,20.90
2019-02-28T06:57:09.196Z,20.80
2019-02-28T06:59:55.510Z,20.80
2019-02-28T07:02:42.049Z,20.90
2019-02-28T07:05:28.451Z,20.90
2019-02-28T07:08:14.796Z,20.90
2019-02-28T07:11:00.734Z,21.00
2019-02-28T07:13:47.011Z,21.00
2019-02-28T07:16:34.525Z,21.00
2019-02-28T07:19:21.327Z,21.00
2019-02-28T07:22:07.551Z,21.00
2019-02-28T07:24:54.981Z,21.10
2019-02-28T07:27:41.381Z,21.10
2019-02-28T07:30:27.628Z,21.20
2019-02-28T07:33:14.883Z,21.20
2019-02-28T07:36:00.835Z,21.20
2019-02-28T07:38:46.979Z,21.30
2019-02-28T07:41:33.384Z,21.30
2019-02-28T07:44:22.185Z,21.40
2019-02-28T07:47:07.635Z,21.40
2019-02-28T07:49:54.968Z,21.40
2019-02-28T07:52:41.487Z,21.40
2019-02-28T07:55:30.504Z,21.40
2019-02-28T07:58:15.551Z,21.40
2019-02-28T08:01:01.299Z,21.40
2019-02-28T08:03:47.804Z,21.40
2019-02-28T08:06:36.342Z,21.50
2019-02-28T08:09:25.443Z,21.50
2019-02-28T08:12:12.240Z,21.50
2019-02-28T08:14:58.987Z,21.60
2019-02-28T08:17:45.370Z,21.60
2019-02-28T08:20:33.937Z,21.70
2019-02-28T08:23:19.519Z,21.70
2019-02-28T08:26:05.927Z,21.80
2019-02-28T08:28:52.352Z,22.00
2019-02-28T08:31:39.549Z,22.20
2019-02-28T08:34:25.884Z,22.40
2019-02-28T08:37:12.890Z,22.60
2019-02-28T08:39:59.057Z,22.70
2019-02-28T08:42:45.875Z,22.90
2019-02-28T08:45:33.475Z,23.00
2019-02-28T08:48:20.256Z,23.00
2019-02-28T08:51:06.076Z,23.10
2019-02-28T08:53:52.223Z,23.20
2019-02-28T08:56:38.290Z,23.30
2019-02-28T08:59:25.217Z,23.30
2019-02-28T09:02:14.542Z,23.30
2019-02-28T09:04:59.517Z,23.30
2019-02-28T09:07:50.778Z,23.30
2019-02-28T09:10:34.780Z,23.30
2019-02-28T09:13:21.218Z,23.30
2019-02-28T09:16:07.422Z,23.30
2019-02-28T09:18:53.796Z,23.20
2019-02-28T09:21:41.267Z,23.20
2019-02-28T09:24:27.579Z,23.30
2019-02-28T09:27:14.179Z,23.20
2019-02-28T09:35:59.232Z,23.10
2019-02-28T09:38:46.654Z,23.20
2019-02-28T09:41:33.043Z,23.20
2019-02-28T09:44:19.548Z,23.20
2019-02-28T09:47:05.751Z,23.20
2019-02-28T09:49:52.602Z,23.20
2019-02-28T09:52:41.813Z,23.20
2019-02-28T09:55:26.917Z,23.20
2019-02-28T09:58:13.181Z,23.20
2019-02-28T10:00:59.620Z,23.20
2019-02-28T10:03:45.919Z,23.20
2019-02-28T10:06:33.341Z,23.20
2019-02-28T10:09:19.512Z,23.10
2019-02-28T10:12:07.869Z,23.10
2019-02-28T10:14:53.643Z,23.00
2019-02-28T10:17:42.190Z,23.00
2019-02-28T10:20:29.825Z,23.00
2019-02-28T10:23:18.434Z,22.90
2019-02-28T10:26:04.218Z,22.90
2019-02-28T10:28:50.764Z,22.80
2019-02-28T10:31:38.397Z,22.80
2019-02-28T10:34:26.390Z,22.70
2019-02-28T10:37:12.791Z,22.60
2019-02-28T10:39:59.215Z,22.60
2019-02-28T10:42:45.291Z,22.50
2019-02-28T10:45:31.447Z,22.50
2019-02-28T10:48:17.715Z,22.40
2019-02-28T10:51:11.991Z,22.30
2019-02-28T10:53:52.712Z,22.30
2019-02-28T10:56:39.267Z,22.20
2019-02-28T10:59:25.555Z,22.20
2019-02-28T11:02:13.913Z,22.10
2019-02-28T11:05:00.245Z,22.10
2019-02-28T11:07:47.718Z,22.00
2019-02-28T11:10:36.593Z,22.00
2019-02-28T11:13:22.906Z,21.90
2019-02-28T11:16:09.308Z,21.90
2019-02-28T11:18:56.199Z,22.00
2019-02-28T11:21:43.808Z,22.10
2019-02-28T11:24:29.870Z,22.10
2019-02-28T11:27:19.558Z,22.10
2019-02-28T11:30:07.405Z,22.00
2019-02-28T11:32:53.880Z,22.00
2019-02-28T11:35:40.148Z,22.00
2019-02-28T11:38:26.217Z,22.00
2019-02-28T11:41:12.579Z,22.00
2019-02-28T11:43:58.739Z,22.00
2019-02-28T11:46:46.373Z,22.00
2019-02-28T11:49:32.760Z,21.90
2019-02-28T11:52:18.951Z,21.90
2019-02-28T11:55:06.120Z,21.90
2019-02-28T11:57:52.493Z,21.90
2019-02-28T12:00:38.855Z,21.90
2019-02-28T12:03:25.405Z,21.90
2019-02-28T12:06:11.810Z,21.90
2019-02-28T12:08:58.541Z,21.90
2019-02-28T12:11:44.965Z,21.90
2019-02-28T12:14:31.289Z,21.90
2019-02-28T12:17:17.576Z,21.90
2019-02-28T12:20:04.916Z,21.80
2019-02-28T12:22:51.290Z,21.80
2019-02-28T12:25:39.497Z,21.60
2019-02-28T12:28:26.559Z,21.60
2019-02-28T12:31:12.252Z,21.40
2019-02-28T12:33:58.399Z,21.30
2019-02-28T12:36:46.329Z,21.30
2019-02-28T12:39:33.312Z,21.40
2019-02-28T12:42:21.488Z,21.30
2019-02-28T12:45:11.697Z,21.30
2019-02-28T12:47:58.084Z,21.30
2019-02-28T12:50:43.965Z,21.20
2019-02-28T12:53:30.288Z,21.10
2019-02-28T12:56:16.779Z,21.00
2019-02-28T12:59:03.319Z,20.90
2019-02-28T13:01:49.528Z,20.70
2019-02-28T13:04:36.731Z,20.60
2019-02-28T13:07:23.036Z,20.50
2019-02-28T13:10:12.820Z,20.40
2019-02-28T13:13:06.378Z,20.40
2019-02-28T13:15:46.890Z,20.30
2019-02-28T13:18:33.067Z,20.30
2019-02-28T13:21:18.927Z,20.40
2019-02-28T13:24:05.918Z,20.40
2019-02-28T13:26:53.556Z,20.30
2019-02-28T13:29:39.779Z,20.30
2019-02-28T13:32:25.960Z,20.40
2019-02-28T13:35:14.632Z,20.40
2019-02-28T13:38:01.383Z,20.40
2019-02-28T13:40:48.058Z,20.40
2019-02-28T13:43:34.314Z,20.50
2019-02-28T13:46:20.624Z,20.50
2019-02-28T13:49:08.511Z,20.40
2019-02-28T13:51:55.049Z,20.40
2019-02-28T13:54:42.146Z,20.40
2019-02-28T13:57:29.205Z,20.40
2019-02-28T14:00:21.003Z,20.40
2019-02-28T14:03:09.497Z,20.40
2019-02-28T14:05:55.567Z,20.40
2019-02-28T14:08:42.129Z,20.40
2019-02-28T14:11:30.404Z,20.50
2019-02-28T14:14:16.915Z,20.50
2019-02-28T14:17:03.555Z,20.50
2019-02-28T14:19:52.662Z,20.50
2019-02-28T14:22:38.153Z,20.50
2019-02-28T14:25:24.629Z,20.50
2019-02-28T14:28:11.020Z,20.50
2019-02-28T14:30:57.528Z,20.50
2019-02-28T14:33:45.672Z,20.60
2019-02-28T14:36:32.004Z,20.60
2019-02-28T14:39:17.876Z,20.60
2019-02-28T14:42:06.586Z,20.50
2019-02-28T14:44:52.603Z,20.60
2019-02-28T14:47:38.772Z,20.60
2019-02-28T14:50:25.604Z,20.60
2019-02-28T14:53:14.353Z,20.60
2019-02-28T14:55:59.512Z,20.60
2019-02-28T14:58:45.908Z,20.60
2019-02-28T15:01:32.381Z,20.60
2019-02-28T15:04:18.680Z,20.60
2019-02-28T15:07:05.097Z,20.60
2019-02-28T15:09:51.548Z,20.60
2019-02-28T15:12:38.879Z,20.60
2019-02-28T15:15:25.128Z,20.60
2019-02-28T15:18:14.587Z,20.60
2019-02-28T15:20:59.461Z,20.60
2019-02-28T15:23:45.876Z,20.60
2019-02-28T15:26:33.129Z,20.60
2019-02-28T15:29:20.185Z,20.60
2019-02-28T15:32:06.863Z,20.60
2019-02-28T15:34:53.413Z,20.70
2019-02-28T15:37:39.763Z,20.70
2019-02-28T15:40:28.316Z,20.70
2019-02-28T15:43:17.238Z,20.70
2019-02-28T15:46:03.320Z,20.70
2019-02-28T15:48:49.073Z,20.60
2019-02-28T15:51:35.682Z,20.60
2019-02-28T15:54:25.172Z,20.60
2019-02-28T15:57:10.177Z,20.60
2019-02-28T15:59:56.489Z,20.60
2019-02-28T16:02:43.648Z,20.60
2019-02-28T16:05:29.940Z,20.60
2019-02-28T16:08:16.637Z,20.60
2019-02-28T16:11:03.239Z,20.60
2019-02-28T16:13:50.707Z,20.60
2019-02-28T16:16:37.079Z,20.60
2019-02-28T16:19:23.909Z,20.60
2019-02-28T16:22:10.163Z,20.60
2019-02-28T16:24:56.564Z,20.60
2019-02-28T16:27:43.104Z,20.60
2019-02-28T16:30:32.005Z,20.60
2019-02-28T16:33:20.911Z,20.60
2019-02-28T16:36:05.559Z,20.60
2019-02-28T16:38:51.788Z,20.60
2019-02-28T16:41:39.861Z,20.60
2019-02-28T16:44:30.917Z,20.60
2019-02-28T16:47:16.534Z,20.60
2019-02-28T16:50:03.348Z,20.60
2019-02-28T16:52:50.180Z,20.60
2019-02-28T16:55:36.267Z,20.60
2019-02-28T16:58:22.867Z,20.60
2019-02-28T17:01:09.044Z,20.60
2019-02-28T17:03:55.692Z,20.60
2019-02-28T17:06:41.976Z,20.60
2019-02-28T17:09:41.897Z,20.60
2019-02-28T17:13:02.996Z,20.60
2019-02-28T17:16:08.762Z,20.60
2019-02-28T17:18:56.734Z,20.60
2019-02-28T17:21:43.102Z,20.60
2019-02-28T17:24:28.955Z,20.60
2019-02-28T17:27:32.559Z,20.60
2019-02-28T17:30:41.023Z,20.60
2019-02-28T17:33:27.212Z,20.60
2019-02-28T17:36:13.062Z,20.60
2019-02-28T17:38:58.899Z,20.50
2019-02-28T17:41:45.484Z,20.60
2019-02-28T17:45:01.699Z,20.60
2019-02-28T17:48:34.364Z,20.60
2019-02-28T17:51:40.291Z,20.60
2019-02-28T17:55:07.592Z,20.60
2019-02-28T17:58:08.567Z,20.60
2019-02-28T18:01:19.360Z,20.60
2019-02-28T18:04:36.167Z,20.60
2019-02-28T18:08:13.959Z,20.60
2019-02-28T18:11:34.159Z,20.60
2019-02-28T18:14:58.045Z,20.60
2019-02-28T18:18:08.890Z,20.60
2019-02-28T18:21:48.853Z,20.60
2019-02-28T18:25:00.231Z,20.60
2019-02-28T18:28:27.271Z,20.60
2019-02-28T18:31:15.543Z,20.60
2019-02-28T18:34:08.240Z,20.60
2019-02-28T18:36:54.172Z,20.60
2019-02-28T18:39:40.404Z,20.60
2019-02-28T18:42:27.119Z,20.60
2019-02-28T18:45:15.650Z,20.60
2019-02-28T18:48:03.363Z,20.60
2019-02-28T18:50:49.391Z,20.70
2019-02-28T18:53:35.776Z,20.70
2019-02-28T18:56:22.353Z,20.70
2019-02-28T18:59:08.794Z,20.70
2019-02-28T19:01:55.093Z,20.70
2019-02-28T19:04:41.618Z,20.70
2019-02-28T19:07:27.856Z,20.70
2019-02-28T19:10:14.247Z,20.80
2019-02-28T19:13:00.400Z,20.80
2019-02-28T19:15:46.723Z,20.80
2019-02-28T19:18:33.279Z,20.80
2019-02-28T19:21:19.523Z,20.80
2019-02-28T19:24:05.753Z,20.80
2019-02-28T19:26:52.781Z,20.80
2019-02-28T19:29:39.016Z,20.80
2019-02-28T19:32:25.207Z,20.80
2019-02-28T19:35:11.627Z,20.80
2019-02-28T19:37:57.829Z,20.80
2019-02-28T19:40:44.214Z,20.80
2019-02-28T19:43:30.803Z,20.90
2019-02-28T19:46:17.107Z,20.80
2019-02-28T19:49:03.459Z,20.80
2019-02-28T19:51:49.797Z,20.80
2019-02-28T19:54:36.099Z,20.90
2019-02-28T19:57:22.138Z,20.90
2019-02-28T20:00:12.268Z,20.90
2019-02-28T20:02:58.632Z,20.90
2019-02-28T20:05:45.110Z,20.80
2019-02-28T20:08:31.556Z,20.90
2019-02-28T20:11:17.968Z,20.90
2019-02-28T20:14:04.520Z,20.80
2019-02-28T20:16:51.351Z,20.80
2019-02-28T20:19:37.674Z,20.80
2019-02-28T20:22:24.376Z,20.80
2019-02-28T20:25:12.043Z,20.80
2019-02-28T20:27:59.607Z,20.80
2019-02-28T20:30:47.578Z,20.80
2019-02-28T20:33:33.963Z,20.80
2019-02-28T20:36:20.143Z,20.80
2019-02-28T20:39:08.828Z,20.80
2019-02-28T20:41:55.300Z,20.80
2019-02-28T20:44:41.728Z,20.70
2019-02-28T20:47:28.089Z,20.70
2019-02-28T20:50:21.084Z,20.70
2019-02-28T20:53:07.134Z,20.80
2019-02-28T20:55:53.504Z,20.80
2019-02-28T20:58:39.773Z,20.80
2019-02-28T21:01:25.935Z,20.80
2019-02-28T21:04:12.204Z,20.80
2019-02-28T21:06:59.813Z,20.80
2019-02-28T21:09:47.267Z,20.80
2019-02-28T21:12:34.048Z,20.80
2019-02-28T21:15:19.871Z,20.80
2019-02-28T21:18:07.259Z,20.90
2019-02-28T21:20:53.635Z,20.90
2019-02-28T21:23:40.355Z,20.90
2019-02-28T21:26:26.787Z,20.90
2019-02-28T21:29:13.449Z,20.90
2019-02-28T21:31:59.665Z,20.90
2019-02-28T21:34:46.703Z,20.90
2019-02-28T21:37:33.101Z,21.00
2019-02-28T21:40:20.640Z,21.00
2019-02-28T21:43:07.109Z,21.00
2019-02-28T21:45:53.407Z,21.00
2019-02-28T21:48:39.871Z,21.00
2019-02-28T21:51:26.267Z,21.00
2019-02-28T21:54:12.667Z,21.00
2019-02-28T21:56:58.987Z,21.00
2019-02-28T21:59:45.321Z,21.00
2019-02-28T22:02:32.077Z,21.00
2019-02-28T22:05:18.391Z,21.00
2019-02-28T22:08:04.797Z,21.00
2019-02-28T22:10:51.049Z,21.00
2019-02-28T22:13:37.781Z,21.10
2019-02-28T22:16:24.173Z,21.10
2019-02-28T22:19:10.486Z,21.10
2019-02-28T22:21:56.803Z,21.10
2019-02-28T22:24:43.451Z,21.10
2019-02-28T22:27:29.719Z,21.10
2019-02-28T22:30:32.935Z,21.10
2019-02-28T22:33:37.664Z,21.10
2019-02-28T22:36:30.303Z,21.10
2019-02-28T22:39:16.503Z,21.10
2019-02-28T22:42:02.772Z,21.10
2019-02-28T22:44:49.123Z,21.10
2019-02-28T22:47:35.491Z,21.10
2019-02-28T22:50:21.697Z,21.10
2019-02-28T22:53:08.477Z,21.10
2019-02-28T22:55:54.215Z,21.10
2019-02-28T22:58:40.487Z,21.10
2019-02-28T23:01:27.814Z,21.10
2019-02-28T23:04:14.375Z,21.10
2019-02-28T23:07:00.708Z,21.10
2019-02-28T23:09:47.623Z,21.20
2019-02-28T23:12:33.867Z,21.20
2019-02-28T23:15:21.236Z,21.20
2019-02-28T23:18:07.689Z,21.20
2019-02-28T23:20:55.019Z,21.20
2019-02-28T23:23:41.287Z,21.20
2019-02-28T23:26:27.725Z,21.20
2019-02-28T23:29:17.143Z,21.20
2019-02-28T23:32:40.167Z,21.20
2019-02-28T23:35:33.668Z,21.20
2019-02-28T23:38:19.795Z,21.20
2019-02-28T23:41:06.060Z,21.20
2019-02-28T23:43:52.883Z,21.20
2019-02-28T23:46:39.072Z,21.20
2019-02-28T23:49:25.424Z,21.20
2019-02-28T23:52:14.681Z,21.20
2019-02-28T23:55:00.915Z,21.30
2019-02-28T23:57:47.191Z,21.20
